KMYV/MYV METAR and TAF weather

Enter ICAO airport designator
Station Type Date Time Source
KMYV METAR 2020/11/28 19:53 UTC NOAA

KMYV 281953Z AUTO 31005KT 10SM CLR 14/00 A3027 RMK AO2 SLP255 T01440000


Station Type Date Time Source
KMYV Decoded METAR 2020/11/28 19:53 UTC NOAA

MARYSVILLE YUBA COUNTY, CA, United States (KMYV) 39-06N 121-34W 21M
Nov 28, 2020 - 02:53 PM EST / 2020.11.28 1953 UTC
Wind: from the NW (310 degrees) at 6 MPH (5 KT):0
Visibility: 10 mile(s):0
Sky conditions: clear
Temperature: 57.9 F (14.4 C)
Dew Point: 32.0 F (0.0 C)
Relative Humidity: 37%
Pressure (altimeter): 30.27 in. Hg (1025 hPa)
ob: KMYV 281953Z AUTO 31005KT 10SM CLR 14/00 A3027 RMK AO2 SLP255 T01440000
cycle: 20

Station Type Date Time Source
KMYV TAF UTC NOAA

Error!

Example: see airport list